Time;durP1;ratioP1;P1;durP2;ratioP2;P2;SDS_P1;SDS_P2;PMS_P1;PMS_P2;Temp;Humidity;BMP_temperature;BMP_pressure;BME280_temperature;BME280_humidity;BME280_pressure;Samples;Min_cycle;Max_cycle;Signal;HPM_P1;HPM_P2
2023/05/20 00:02:13;;;;;;;12.60;6.30;;;;;;;19.04;40.93;99693.59;79425;1296;3013050;-68
2023/05/20 00:04:40;;;;;;;13.50;6.30;;;;;;;19.01;41.07;99697.56;79339;1295;3011565;-64
2023/05/20 00:07:08;;;;;;;13.30;6.20;;;;;;;18.98;40.95;99697.15;78194;1298;3051409;-68
2023/05/20 00:09:37;;;;;;;14.90;6.20;;;;;;;18.97;41.29;99698.20;79104;1301;3020433;-68
2023/05/20 00:12:05;;;;;;;10.30;6.10;;;;;;;18.94;41.54;99695.95;79304;1296;3013689;-66
2023/05/20 00:14:33;;;;;;;11.80;6.20;;;;;;;18.93;41.01;99695.64;78035;1301;3056733;-66
2023/05/20 00:16:59;;;;;;;12.30;6.40;;;;;;;18.89;41.48;99693.84;79346;1295;3012859;-68
2023/05/20 00:19:26;;;;;;;12.80;6.60;;;;;;;18.89;41.18;99693.90;79260;1295;3013540;-65
2023/05/20 00:21:56;;;;;;;14.20;6.20;;;;;;;18.88;41.41;99692.20;78083;1298;3026396;-62
2023/05/20 00:24:24;;;;;;;13.50;6.50;;;;;;;18.86;41.47;99692.73;79455;1301;3013198;-68
2023/05/20 00:26:52;;;;;;;10.50;6.40;;;;;;;18.83;41.80;99691.77;78080;1299;3026527;-68
2023/05/20 00:29:20;;;;;;;12.30;6.90;;;;;;;18.77;42.51;99688.00;79380;1296;3013931;-68
2023/05/20 00:31:46;;;;;;;13.20;6.30;;;;;;;18.75;42.16;99685.14;79389;1295;3011700;-68
2023/05/20 00:34:14;;;;;;;13.10;6.60;;;;;;;18.70;42.35;99682.05;78204;1299;3054371;-65
2023/05/20 00:36:41;;;;;;;11.00;6.80;;;;;;;18.65;42.94;99679.73;79299;1301;3019278;-65
2023/05/20 00:39:08;;;;;;;10.70;6.70;;;;;;;18.62;42.63;99685.82;79365;1295;3011722;-68
2023/05/20 00:41:37;;;;;;;13.50;6.50;;;;;;;18.57;42.90;99683.82;78156;1295;3027600;-68
2023/05/20 00:44:03;;;;;;;13.90;7.30;;;;;;;18.49;43.66;99685.38;79364;1295;3013466;-64
2023/05/20 00:46:30;;;;;;;14.50;6.90;;;;;;;18.45;43.74;99682.26;79299;1295;3011731;-65
2023/05/20 00:48:59;;;;;;;13.20;7.10;;;;;;;18.40;43.61;99680.36;78119;1300;3051618;-65
2023/05/20 00:51:26;;;;;;;10.80;6.40;;;;;;;18.37;43.78;99680.60;79214;1300;3018637;-63
2023/05/20 00:53:53;;;;;;;13.10;6.70;;;;;;;18.35;43.79;99679.05;79246;1300;3011657;-60
2023/05/20 00:56:22;;;;;;;13.00;7.10;;;;;;;18.32;43.65;99676.48;78126;1300;3069983;-66
2023/05/20 00:58:49;;;;;;;11.50;7.00;;;;;;;18.33;43.59;99672.89;79343;1295;3013678;-62
2023/05/20 01:01:16;;;;;;;13.30;6.90;;;;;;;18.32;43.26;99674.90;79380;1311;3012188;-67
2023/05/20 01:03:44;;;;;;;12.60;6.70;;;;;;;18.31;43.20;99674.98;78133;1298;3053317;-65
2023/05/20 01:06:11;;;;;;;10.40;6.50;;;;;;;18.28;43.25;99673.41;79351;1301;3014209;-63
2023/05/20 01:08:39;;;;;;;12.30;6.90;;;;;;;18.25;43.54;99672.09;79347;1295;3012952;-63
2023/05/20 01:11:10;;;;;;;12.20;5.90;;;;;;;18.25;43.27;99670.86;78158;1296;3069620;-70
2023/05/20 01:13:42;;;;;;;16.10;6.60;;;;;;;18.24;43.68;99668.86;79499;1295;3013013;-65
2023/05/20 01:16:10;;;;;;;15.20;7.70;;;;;;;18.22;43.29;99670.10;78156;1295;3056536;-64
2023/05/20 01:18:37;;;;;;;11.30;6.80;;;;;;;18.20;43.61;99667.98;79201;1296;3018339;-63
2023/05/20 01:21:05;;;;;;;13.20;6.80;;;;;;;18.20;43.22;99667.77;79280;1296;3011586;-65
2023/05/20 01:23:40;;;;;;;13.50;6.70;;;;;;;18.22;42.85;99671.55;78096;1301;3052023;-66
2023/05/20 01:26:12;;;;;;;8.60;6.00;;;;;;;18.22;43.03;99670.46;78788;1300;3011173;-64
2023/05/20 01:28:39;;;;;;;11.30;6.40;;;;;;;18.21;42.99;99668.80;79426;1300;3013176;-65
2023/05/20 01:31:10;;;;;;;10.60;6.20;;;;;;;18.21;42.47;99668.05;79251;1295;3011738;-68
2023/05/20 01:33:40;;;;;;;11.80;6.50;;;;;;;18.21;43.25;99667.52;78170;1295;3056084;-65
2023/05/20 01:36:08;;;;;;;10.50;6.60;;;;;;;18.22;42.75;99669.42;79334;1295;3013463;-62
2023/05/20 01:38:34;;;;;;;12.30;6.80;;;;;;;18.20;42.80;99665.30;79376;1295;3011604;-64
2023/05/20 01:41:03;;;;;;;13.10;6.70;;;;;;;18.20;42.79;99666.20;78223;1298;3028482;-64
2023/05/20 01:43:30;;;;;;;10.80;6.10;;;;;;;18.20;42.85;99667.66;79380;1301;3013019;-64
2023/05/20 01:45:57;;;;;;;16.10;6.80;;;;;;;18.15;42.83;99669.48;79363;1295;3011686;-61
2023/05/20 01:48:24;;;;;;;13.00;6.60;;;;;;;18.09;43.44;99669.61;78735;1300;3055422;-64
2023/05/20 01:50:52;;;;;;;14.10;7.10;;;;;;;18.05;43.93;99669.31;79976;1298;3012535;-63
2023/05/20 01:53:19;;;;;;;13.40;7.50;;;;;;;18.00;44.20;99670.95;79464;1295;3012661;-66
2023/05/20 01:55:46;;;;;;;10.30;6.90;;;;;;;17.93;44.71;99673.58;78129;1300;3052380;-69
2023/05/20 01:58:13;;;;;;;15.30;8.50;;;;;;;17.84;44.90;99674.65;79257;1301;3020641;-65
2023/05/20 02:00:40;;;;;;;13.90;7.90;;;;;;;17.67;46.23;99676.30;79239;1301;3011758;-63
2023/05/20 02:03:08;;;;;;;16.40;7.70;;;;;;;17.52;46.68;99680.62;78200;1300;3028309;-68
2023/05/20 02:05:36;;;;;;;14.30;8.70;;;;;;;17.28;47.58;99688.65;79345;1295;3014702;-70
2023/05/20 02:08:07;;;;;;;15.80;8.90;;;;;;;17.07;48.55;99697.21;78717;1301;3013685;-66
2023/05/20 02:10:33;;;;;;;18.30;9.30;;;;;;;16.73;49.52;99701.23;79275;1301;3013435;-64
2023/05/20 02:13:00;;;;;;;21.00;10.60;;;;;;;16.54;50.44;99702.21;79360;1301;3012192;-69
2023/05/20 02:15:28;;;;;;;26.70;10.00;;;;;;;16.43;50.98;99701.17;78203;1295;3028114;-64
2023/05/20 02:17:57;;;;;;;21.50;10.70;;;;;;;16.45;50.89;99700.06;79418;1296;3013642;-62
2023/05/20 02:20:23;;;;;;;24.10;11.00;;;;;;;16.45;51.15;99700.98;79316;1296;3012469;-64
2023/05/20 02:22:51;;;;;;;19.60;10.70;;;;;;;16.39;51.38;99701.29;78177;1296;3054122;-65
2023/05/20 02:25:17;;;;;;;20.80;11.90;;;;;;;16.42;51.44;99699.66;79361;1301;3013126;-69
2023/05/20 02:27:44;;;;;;;24.40;11.50;;;;;;;16.39;51.63;99704.45;79423;1295;3013716;-66
2023/05/20 02:30:13;;;;;;;24.20;11.70;;;;;;;16.33;51.98;99705.33;78290;1301;3028580;-66
2023/05/20 02:32:42;;;;;;;24.40;11.60;;;;;;;16.20;52.76;99705.51;79460;1299;3012070;-68
2023/05/20 02:35:10;;;;;;;17.70;10.70;;;;;;;16.26;52.34;99705.90;78148;1300;3026108;-65
2023/05/20 02:37:38;;;;;;;17.70;10.50;;;;;;;16.21;52.28;99701.33;79410;1301;3018424;-61
2023/05/20 02:40:05;;;;;;;18.20;10.90;;;;;;;16.17;52.74;99709.60;79348;1300;3013296;-63
2023/05/20 02:42:34;;;;;;;22.70;10.60;;;;;;;16.15;52.66;99705.48;78229;1311;3053295;-65
2023/05/20 02:45:01;;;;;;;16.70;9.70;;;;;;;16.19;52.74;99702.90;79465;1301;3013312;-63
2023/05/20 02:47:28;;;;;;;28.10;12.20;;;;;;;16.20;52.34;99705.27;79438;1301;3013038;-61
2023/05/20 02:49:55;;;;;;;22.30;12.20;;;;;;;16.20;52.30;99706.03;78241;1298;3056223;-63
2023/05/20 02:52:22;;;;;;;18.60;11.00;;;;;;;16.17;52.90;99708.52;79365;1295;3013733;-64
2023/05/20 02:54:49;;;;;;;20.20;12.90;;;;;;;16.18;52.71;99705.66;79336;1301;3011792;-69
2023/05/20 02:57:17;;;;;;;26.20;13.10;;;;;;;16.21;52.07;99703.12;78281;1301;3027453;-64
2023/05/20 02:59:43;;;;;;;18.00;10.50;;;;;;;16.24;51.85;99703.96;79365;1296;3018477;-67
2023/05/20 03:02:10;;;;;;;21.80;10.80;;;;;;;16.30;52.08;99705.89;79427;1300;3011606;-64
2023/05/20 03:04:39;;;;;;;21.30;10.80;;;;;;;16.38;52.00;99703.73;78316;1301;3025884;-68
2023/05/20 03:07:07;;;;;;;18.60;11.40;;;;;;;16.49;51.52;99714.64;79518;1296;3013128;-65
2023/05/20 03:09:36;;;;;;;20.60;11.20;;;;;;;16.54;51.87;99712.65;78948;1300;3011479;-66
2023/05/20 03:12:05;;;;;;;17.60;9.90;;;;;;;16.61;51.43;99715.81;79393;1299;3013355;-64
2023/05/20 03:14:32;;;;;;;18.50;11.40;;;;;;;16.65;51.80;99717.02;79456;1301;3011528;-64
2023/05/20 03:17:00;;;;;;;16.60;10.20;;;;;;;16.69;51.56;99719.92;78141;1300;3069404;-65
2023/05/20 03:19:27;;;;;;;19.00;9.50;;;;;;;16.77;51.47;99727.20;79251;1295;3013400;-63
2023/05/20 03:21:53;;;;;;;16.40;9.80;;;;;;;16.82;51.72;99724.48;79292;1301;3011644;-63
2023/05/20 03:24:22;;;;;;;17.30;8.90;;;;;;;16.86;51.69;99722.25;78119;1298;3028138;-69
2023/05/20 03:26:48;;;;;;;20.50;9.20;;;;;;;16.89;52.08;99719.88;79432;1318;3013199;-66
2023/05/20 03:29:16;;;;;;;17.90;9.40;;;;;;;16.92;51.93;99718.59;79244;1301;3012291;-61
2023/05/20 03:31:45;;;;;;;13.90;8.10;;;;;;;16.97;51.86;99723.98;78149;1301;3068609;-65
2023/05/20 03:34:11;;;;;;;14.20;8.50;;;;;;;17.03;51.77;99718.05;79277;1301;3020517;-64
2023/05/20 03:36:38;;;;;;;15.30;8.90;;;;;;;17.09;51.47;99715.75;79300;1295;3011947;-68
2023/05/20 03:39:06;;;;;;;18.10;9.50;;;;;;;17.14;51.22;99718.33;78150;1295;3028917;-66
2023/05/20 03:41:33;;;;;;;14.20;9.40;;;;;;;17.21;51.18;99717.92;79401;1301;3013298;-66
2023/05/20 03:44:00;;;;;;;21.50;9.30;;;;;;;17.27;51.47;99716.55;79313;1301;3013601;-66
2023/05/20 03:46:29;;;;;;;14.30;8.50;;;;;;;17.34;51.46;99714.69;78352;1298;3028849;-71
2023/05/20 03:48:56;;;;;;;15.10;8.50;;;;;;;17.40;51.07;99715.48;79456;1296;3012077;-67
2023/05/20 03:51:23;;;;;;;18.10;9.20;;;;;;;17.43;51.02;99715.38;79490;1296;3013518;-65
2023/05/20 03:53:52;;;;;;;15.00;8.60;;;;;;;17.46;51.07;99711.41;78268;1300;3053840;-66
2023/05/20 03:56:18;;;;;;;17.20;9.00;;;;;;;17.53;50.65;99709.95;79357;1301;3018758;-64
2023/05/20 03:58:46;;;;;;;16.30;8.20;;;;;;;17.59;50.46;99708.17;79227;1301;3011740;-64
2023/05/20 04:01:14;;;;;;;16.10;8.30;;;;;;;17.67;50.46;99709.94;78019;1298;3068227;-74
2023/05/20 04:03:41;;;;;;;15.10;8.90;;;;;;;17.76;50.55;99712.18;79313;1301;3013220;-65
2023/05/20 04:06:07;;;;;;;14.00;8.50;;;;;;;17.84;50.72;99718.64;79316;1296;3011688;-70
2023/05/20 04:08:35;;;;;;;15.60;8.40;;;;;;;17.90;50.51;99721.22;78042;1301;3026188;-66
2023/05/20 04:11:02;;;;;;;16.10;11.20;;;;;;;17.90;50.82;99722.65;79283;1302;3013531;-67
2023/05/20 04:13:29;;;;;;;16.80;8.70;;;;;;;17.93;50.78;99720.28;79480;1300;3011466;-70
2023/05/20 04:15:56;;;;;;;14.40;8.40;;;;;;;18.00;50.47;99720.21;78358;1300;3026997;-72
2023/05/20 04:18:24;;;;;;;14.20;8.70;;;;;;;18.04;50.16;99721.48;79572;1294;3015656;-66
2023/05/20 04:20:54;;;;;;;16.30;8.30;;;;;;;18.14;50.22;99725.81;79316;1296;3013050;-69
2023/05/20 04:23:22;;;;;;;14.70;8.30;;;;;;;18.23;49.65;99733.77;78621;1295;3053036;-73
2023/05/20 04:25:49;;;;;;;14.20;8.20;;;;;;;18.31;49.58;99740.27;81939;1301;3012617;-70
2023/05/20 04:28:16;;;;;;;12.60;8.40;;;;;;;18.37;49.75;99731.31;81574;1296;3011318;-72
2023/05/20 04:30:44;;;;;;;17.30;9.10;;;;;;;18.43;49.86;99730.60;80397;1300;3026632;-72
2023/05/20 04:33:11;;;;;;;14.10;8.50;;;;;;;18.54;49.29;99740.83;79459;1298;3013455;-69
2023/05/20 04:35:40;;;;;;;15.40;8.20;;;;;;;18.66;48.91;99738.84;79447;1296;3011637;-68
2023/05/20 04:38:09;;;;;;;18.30;7.70;;;;;;;18.75;48.54;99741.20;78298;1298;3053389;-69
2023/05/20 04:40:36;;;;;;;21.10;7.30;;;;;;;18.83;48.23;99744.92;79649;1298;3013257;-75
2023/05/20 04:43:02;;;;;;;14.10;6.90;;;;;;;18.92;47.27;99743.48;79690;1301;3011546;-72
2023/05/20 04:45:32;;;;;;;13.60;7.20;;;;;;;18.98;46.54;99748.27;78442;1299;3067925;-68
2023/05/20 04:47:59;;;;;;;15.40;7.40;;;;;;;19.09;46.29;99741.09;79436;1301;3013407;-67
2023/05/20 04:50:26;;;;;;;13.10;6.80;;;;;;;19.17;45.76;99744.20;79565;1298;3011595;-69
2023/05/20 04:52:54;;;;;;;21.80;6.90;;;;;;;19.23;45.69;99739.62;78326;1298;3053096;-70
2023/05/20 04:55:23;;;;;;;12.70;7.50;;;;;;;19.29;45.76;99745.38;79514;1298;3015016;-68
2023/05/20 04:57:52;;;;;;;12.30;7.30;;;;;;;19.33;45.70;99746.83;78967;1298;3011617;-64
2023/05/20 05:00:19;;;;;;;11.30;6.70;;;;;;;19.41;45.62;99746.63;79318;1309;3018736;-65
2023/05/20 05:02:46;;;;;;;12.50;6.60;;;;;;;19.53;45.30;99738.04;79580;1301;3011829;-74
2023/05/20 05:05:14;;;;;;;10.50;6.40;;;;;;;19.62;44.92;99734.36;78360;1296;3056241;-64
2023/05/20 05:07:42;;;;;;;12.10;7.20;;;;;;;19.64;44.97;99737.03;79292;1297;3013258;-70
2023/05/20 05:10:14;;;;;;;13.90;6.80;;;;;;;19.74;44.94;99742.86;79077;1300;3011781;-69
2023/05/20 05:12:41;;;;;;;11.80;6.90;;;;;;;19.78;45.11;99740.44;79452;1302;3013548;-71
2023/05/20 05:15:11;;;;;;;20.70;6.70;;;;;;;19.85;45.06;99735.97;78774;1303;3011530;-67
2023/05/20 05:17:38;;;;;;;16.40;6.70;;;;;;;19.90;45.16;99734.54;79503;1296;3013644;-65
2023/05/20 05:20:07;;;;;;;17.60;7.50;;;;;;;19.99;45.04;99737.69;79580;1298;3011386;-68
2023/05/20 05:22:38;;;;;;;11.60;6.80;;;;;;;20.09;44.73;99738.63;78358;1301;3055966;-68
2023/05/20 05:25:06;;;;;;;13.50;7.00;;;;;;;20.12;44.74;99738.91;79525;1305;3011616;-72
2023/05/20 05:27:35;;;;;;;15.60;6.90;;;;;;;20.18;44.77;99739.02;79005;1302;3013015;-67
2023/05/20 05:30:02;;;;;;;13.00;7.10;;;;;;;20.30;44.52;99740.02;79466;1309;3018542;-72
2023/05/20 05:32:30;;;;;;;15.20;7.30;;;;;;;20.35;44.44;99742.55;79480;1300;3011482;-72
2023/05/20 05:34:58;;;;;;;13.80;6.20;;;;;;;20.40;44.05;99745.77;78293;1298;3068353;-69
2023/05/20 05:37:25;;;;;;;16.50;6.40;;;;;;;20.50;43.76;99743.10;79490;1295;3019245;-65
2023/05/20 05:39:51;;;;;;;13.30;6.60;;;;;;;20.58;43.50;99741.35;79362;1300;3011572;-68
2023/05/20 05:42:19;;;;;;;13.20;6.10;;;;;;;20.61;42.84;99740.05;78477;1295;3026646;-73
2023/05/20 05:44:47;;;;;;;11.20;6.50;;;;;;;20.68;42.45;99742.17;79751;1298;3013366;-63
2023/05/20 05:47:14;;;;;;;12.90;5.70;;;;;;;20.82;42.47;99745.99;79431;1301;3011548;-71
2023/05/20 05:49:43;;;;;;;14.00;6.40;;;;;;;20.90;42.07;99744.49;78244;1296;3069581;-64
2023/05/20 05:52:10;;;;;;;16.20;6.30;;;;;;;20.95;41.84;99748.48;79602;1295;3013278;-68
2023/05/20 05:54:37;;;;;;;13.70;6.70;;;;;;;21.03;41.89;99749.79;79551;1301;3011368;-72
2023/05/20 05:57:08;;;;;;;16.60;7.00;;;;;;;21.11;41.64;99749.38;78460;1296;3026691;-67
2023/05/20 05:59:36;;;;;;;23.50;7.60;;;;;;;21.13;41.72;99748.63;79325;1297;3011360;-72
2023/05/20 06:02:03;;;;;;;13.20;6.20;;;;;;;21.22;41.93;99745.00;78455;1298;3027839;-73
2023/05/20 06:04:30;;;;;;;10.40;6.00;;;;;;;21.29;41.89;99744.73;79468;1301;3012939;-77
2023/05/20 06:07:05;;;;;;;19.70;7.10;;;;;;;21.32;41.95;99746.20;79398;1301;3011618;-74
2023/05/20 06:09:33;;;;;;;12.30;6.10;;;;;;;21.42;41.81;99745.36;78381;1301;3055939;-69
2023/05/20 06:12:01;;;;;;;9.80;5.80;;;;;;;21.55;41.65;99745.98;79461;1300;3013979;-69
2023/05/20 06:14:28;;;;;;;13.00;6.00;;;;;;;21.67;41.10;99746.09;79615;1302;3011499;-71
2023/05/20 06:16:56;;;;;;;13.90;6.50;;;;;;;21.70;40.71;99747.64;78375;1301;3053224;-67
2023/05/20 06:19:23;;;;;;;12.20;5.90;;;;;;;21.84;40.50;99750.36;79412;1301;3013968;-68
2023/05/20 06:21:50;;;;;;;16.10;6.60;;;;;;;21.96;39.50;99750.33;79627;1298;3011590;-67
2023/05/20 06:24:18;;;;;;;18.20;6.20;;;;;;;22.01;39.00;99748.61;78158;1301;3026440;-73
2023/05/20 06:26:45;;;;;;;11.10;6.20;;;;;;;22.11;38.96;99748.08;79703;1295;3012764;-67
2023/05/20 06:29:12;;;;;;;12.50;6.10;;;;;;;22.19;38.65;99744.98;79503;1295;3013195;-73
2023/05/20 06:31:40;;;;;;;11.50;6.10;;;;;;;22.21;37.78;99742.97;78319;1299;3026500;-75
2023/05/20 06:34:07;;;;;;;16.70;6.30;;;;;;;22.26;37.82;99744.65;79583;1301;3014819;-72
2023/05/20 06:36:33;;;;;;;11.60;6.10;;;;;;;22.35;37.16;99744.57;79753;1295;3013160;-72
2023/05/20 06:39:02;;;;;;;20.00;6.80;;;;;;;22.43;36.93;99748.65;78874;1294;3026568;-63
2023/05/20 06:41:29;;;;;;;9.40;6.00;;;;;;;22.43;36.79;99745.63;80552;1295;3014181;-63
2023/05/20 06:43:56;;;;;;;14.10;6.30;;;;;;;22.50;36.83;99750.61;80521;1301;3011610;-64
2023/05/20 06:46:35;;;;;;;14.30;6.60;;;;;;;22.57;36.61;99747.41;78851;1295;3052263;-75
2023/05/20 06:49:05;;;;;;;13.50;5.90;;;;;;;22.62;36.40;99749.36;79851;1301;3012051;-68
2023/05/20 06:51:34;;;;;;;10.90;5.80;;;;;;;22.77;36.76;99747.92;78737;1295;3013441;-70
2023/05/20 06:54:01;;;;;;;11.70;6.00;;;;;;;22.93;35.95;99744.08;79489;1296;3012860;-68
2023/05/20 06:56:27;;;;;;;13.60;5.80;;;;;;;23.06;35.76;99744.98;79460;1295;3013538;-70
2023/05/20 06:58:56;;;;;;;13.50;5.70;;;;;;;23.20;35.67;99742.40;78251;1301;3026910;-68
2023/05/20 07:01:22;;;;;;;17.10;6.40;;;;;;;23.33;35.46;99744.42;79441;1301;3018533;-66
2023/05/20 07:03:50;;;;;;;12.20;6.50;;;;;;;23.35;35.45;99746.88;79590;1298;3013462;-72
2023/05/20 07:06:18;;;;;;;13.80;7.30;;;;;;;23.44;35.83;99744.42;78364;1300;3027072;-70
2023/05/20 07:08:44;;;;;;;17.60;6.40;;;;;;;23.54;35.51;99746.02;79484;1296;3013522;-75
2023/05/20 07:11:13;;;;;;;17.90;7.40;;;;;;;23.61;35.17;99743.31;79539;1295;3011541;-75
2023/05/20 07:13:41;;;;;;;14.00;7.10;;;;;;;23.69;35.03;99741.20;78387;1302;3053340;-71
2023/05/20 07:16:09;;;;;;;13.70;7.40;;;;;;;23.77;34.57;99745.80;79891;1295;3013136;-68
2023/05/20 07:18:40;;;;;;;14.80;7.30;;;;;;;23.89;34.78;99745.23;79157;1300;3011829;-67
2023/05/20 07:21:06;;;;;;;13.30;8.20;;;;;;;23.99;34.21;99745.31;79742;1296;3012912;-71
2023/05/20 07:23:55;;;;;;;16.10;8.00;;;;;;;24.01;33.68;99746.37;78289;1296;3052770;-73
2023/05/20 07:26:22;;;;;;;19.70;8.40;;;;;;;24.11;33.78;99749.34;79497;1295;3019537;-65
2023/05/20 07:28:50;;;;;;;18.40;7.30;;;;;;;24.24;33.41;99750.06;79318;1295;3013036;-68
2023/05/20 07:31:18;;;;;;;13.40;6.60;;;;;;;24.30;33.21;99746.27;78147;1301;3050550;-64
2023/05/20 07:33:45;;;;;;;12.60;7.00;;;;;;;24.42;33.11;99747.62;77829;1300;3015759;-64
2023/05/20 07:36:12;;;;;;;14.10;6.50;;;;;;;24.49;32.53;99746.47;79437;1299;3011682;-68
2023/05/20 07:38:42;;;;;;;12.00;6.80;;;;;;;24.59;32.67;99746.55;77943;1296;3051616;-74
2023/05/20 07:41:10;;;;;;;12.70;6.70;;;;;;;24.67;31.88;99749.81;80693;1296;3012717;-72
2023/05/20 07:43:40;;;;;;;11.90;5.60;;;;;;;24.77;32.12;99751.16;79767;1295;3011717;-69
2023/05/20 07:46:07;;;;;;;11.10;4.70;;;;;;;24.85;30.73;99751.50;81280;1298;3012884;-70
2023/05/20 07:48:33;;;;;;;7.40;4.60;;;;;;;25.00;30.34;99751.90;79423;1300;3011450;-74
2023/05/20 07:51:02;;;;;;;7.00;3.70;;;;;;;25.17;30.03;99757.84;78252;1301;3026007;-67
2023/05/20 07:53:29;;;;;;;7.40;3.80;;;;;;;25.33;29.54;99753.58;79487;1299;3013142;-68
2023/05/20 07:55:55;;;;;;;10.10;3.90;;;;;;;25.44;28.49;99751.27;79455;1295;3014001;-69
2023/05/20 07:58:23;;;;;;;8.00;4.20;;;;;;;25.53;28.56;99749.14;78174;1301;3028632;-69
2023/05/20 08:00:53;;;;;;;7.60;4.10;;;;;;;25.59;28.61;99749.08;79398;1299;3013709;-69
2023/05/20 08:03:22;;;;;;;9.80;3.90;;;;;;;25.67;28.33;99750.34;78927;1301;3011894;-68
2023/05/20 08:05:58;;;;;;;9.70;3.90;;;;;;;25.75;28.72;99753.61;78721;1298;3011839;-68
2023/05/20 08:08:25;;;;;;;10.10;4.30;;;;;;;25.78;28.74;99753.05;79490;1300;3013251;-67
2023/05/20 08:11:00;;;;;;;8.90;4.00;;;;;;;25.84;28.86;99757.86;78150;1296;3071039;-69
2023/05/20 08:13:28;;;;;;;9.30;3.40;;;;;;;25.90;28.93;99753.65;79486;1295;3013822;-67
2023/05/20 08:15:55;;;;;;;11.10;4.20;;;;;;;25.97;29.00;99750.83;79312;1296;3012929;-67
2023/05/20 08:18:23;;;;;;;11.50;3.80;;;;;;;26.06;29.01;99751.73;78161;1296;3052762;-68
2023/05/20 08:20:50;;;;;;;7.30;4.10;;;;;;;26.14;28.96;99751.11;79303;1301;3014019;-68
2023/05/20 08:23:16;;;;;;;7.80;3.70;;;;;;;26.21;28.65;99738.45;79531;1295;3013083;-64
2023/05/20 08:25:47;;;;;;;10.00;3.80;;;;;;;26.25;28.62;99739.44;78326;1298;3028081;-71
2023/05/20 08:28:14;;;;;;;6.00;3.40;;;;;;;26.32;28.70;99739.75;79454;1296;3013082;-68
2023/05/20 08:30:43;;;;;;;6.90;3.30;;;;;;;26.38;28.51;99740.44;78761;1295;3013997;-66
2023/05/20 08:33:11;;;;;;;11.20;3.70;;;;;;;26.52;27.97;99736.73;79304;1296;3013404;-69
2023/05/20 08:35:39;;;;;;;5.10;3.30;;;;;;;26.61;27.70;99733.52;79424;1295;3012923;-68
2023/05/20 08:38:07;;;;;;;5.20;3.60;;;;;;;26.70;27.72;99734.81;78223;1300;3052708;-66
2023/05/20 08:40:37;;;;;;;6.30;3.70;;;;;;;26.84;27.48;99728.02;79586;1295;3011650;-67
2023/05/20 08:43:05;;;;;;;7.50;3.50;;;;;;;26.93;26.91;99724.90;78036;1295;3025791;-69
2023/05/20 08:45:32;;;;;;;9.20;4.00;;;;;;;26.94;26.68;99719.73;79426;1296;3021071;-70
2023/05/20 08:48:04;;;;;;;6.50;3.80;;;;;;;26.96;26.41;99720.23;78106;1300;3049690;-67
2023/05/20 08:50:31;;;;;;;9.40;3.30;;;;;;;27.07;25.39;99720.45;79633;1295;3020669;-67
2023/05/20 08:52:57;;;;;;;7.90;3.40;;;;;;;27.14;25.81;99721.42;79392;1300;3011851;-69
2023/05/20 08:55:32;;;;;;;5.60;3.00;;;;;;;27.08;25.55;99716.77;78136;1301;3025857;-64
2023/05/20 08:58:02;;;;;;;7.10;2.80;;;;;;;27.03;25.36;99714.15;78853;1296;3013516;-69
2023/05/20 09:00:28;;;;;;;7.90;3.40;;;;;;;27.08;25.19;99715.03;79562;1295;3013337;-69
2023/05/20 09:02:55;;;;;;;9.90;3.50;;;;;;;27.09;24.67;99716.70;79388;1295;3013133;-66
2023/05/20 09:05:23;;;;;;;10.60;3.70;;;;;;;27.17;24.85;99718.86;78253;1295;3048346;-68
2023/05/20 09:07:49;;;;;;;8.20;3.50;;;;;;;27.29;24.96;99716.43;79428;1295;3013185;-70
2023/05/20 09:10:16;;;;;;;7.40;2.60;;;;;;;27.48;25.06;99714.80;79323;1294;3011539;-68
2023/05/20 09:12:44;;;;;;;8.90;2.90;;;;;;;27.66;24.76;99713.50;78208;1301;3026872;-70
2023/05/20 09:15:10;;;;;;;9.00;2.90;;;;;;;27.76;24.25;99704.59;79334;1295;3012882;-67
2023/05/20 09:17:37;;;;;;;5.70;3.20;;;;;;;27.81;24.01;99706.48;79250;1300;3011648;-65
2023/05/20 09:20:07;;;;;;;7.60;2.90;;;;;;;27.71;24.34;99712.12;78083;1300;3028119;-68
2023/05/20 09:22:34;;;;;;;6.50;2.90;;;;;;;27.73;24.21;99713.17;79482;1298;3011747;-64
2023/05/20 09:25:04;;;;;;;5.40;3.00;;;;;;;27.80;24.33;99710.76;78813;1300;3011830;-71
2023/05/20 09:27:31;;;;;;;4.60;3.20;;;;;;;27.93;24.31;99706.42;79415;1301;3014938;-63
2023/05/20 09:29:58;;;;;;;8.00;3.00;;;;;;;28.08;23.89;99709.41;79281;1300;3011742;-67
2023/05/20 09:32:27;;;;;;;8.90;3.20;;;;;;;28.13;23.95;99704.08;78137;1315;3052131;-61
2023/05/20 09:34:54;;;;;;;5.80;2.80;;;;;;;28.19;23.78;99705.23;79421;1295;3013759;-70
2023/05/20 09:37:21;;;;;;;4.30;2.90;;;;;;;28.31;23.78;99702.39;79325;1296;3011783;-70
2023/05/20 09:39:49;;;;;;;8.20;3.10;;;;;;;28.40;23.74;99698.79;78152;1301;3049785;-67
2023/05/20 09:42:27;;;;;;;8.30;2.70;;;;;;;28.45;23.52;99701.46;79366;1299;3012959;-69
2023/05/20 09:44:56;;;;;;;8.50;2.80;;;;;;;28.37;22.82;99700.57;78153;1295;3070770;-67
2023/05/20 09:47:24;;;;;;;8.20;3.00;;;;;;;28.42;22.78;99700.16;79302;1295;3013664;-66
2023/05/20 09:49:51;;;;;;;7.30;3.00;;;;;;;28.54;22.68;99688.59;79244;1295;3011857;-65
2023/05/20 09:52:19;;;;;;;4.60;2.70;;;;;;;28.70;22.98;99684.61;78182;1301;3052842;-67
2023/05/20 09:54:46;;;;;;;10.00;2.80;;;;;;;28.88;22.29;99681.13;79224;1301;3018516;-69
2023/05/20 09:57:12;;;;;;;7.20;3.10;;;;;;;28.92;21.58;99681.42;79393;1301;3011908;-67
2023/05/20 09:59:41;;;;;;;6.80;2.80;;;;;;;28.91;21.91;99680.38;78165;1295;3068544;-70
2023/05/20 10:02:08;;;;;;;7.20;2.60;;;;;;;29.07;22.03;99678.46;79471;1300;3013356;-66
2023/05/20 10:04:36;;;;;;;5.10;2.90;;;;;;;29.21;21.02;99673.48;79424;1298;3013196;-72
2023/05/20 10:07:22;;;;;;;5.70;2.80;;;;;;;29.15;20.87;99668.75;78227;1297;3053717;-69
2023/05/20 10:10:19;;;;;;;4.10;2.60;;;;;;;29.31;20.59;99665.27;78065;1298;3049966;-68
2023/05/20 10:13:25;;;;;;;3.60;2.60;;;;;;;29.40;19.57;99661.71;77794;1305;3053453;-68
2023/05/20 10:16:07;;;;;;;6.70;2.70;;;;;;;29.53;19.77;99662.80;78111;1300;3051935;-68
2023/05/20 10:19:07;;;;;;;5.10;2.40;;;;;;;29.58;19.29;99663.37;78213;1295;3069249;-67
2023/05/20 10:21:35;;;;;;;6.80;2.60;;;;;;;29.40;19.98;99663.50;78239;1295;3052448;-67
2023/05/20 10:24:06;;;;;;;6.40;2.20;;;;;;;29.41;20.40;99666.24;79375;1298;3018382;-65
2023/05/20 10:26:38;;;;;;;6.20;2.60;;;;;;;29.51;20.11;99656.52;78384;1299;3054552;-68
2023/05/20 10:29:17;;;;;;;5.20;2.70;;;;;;;29.66;19.87;99655.85;79526;1295;3011666;-64
2023/05/20 10:31:50;;;;;;;4.20;2.50;;;;;;;29.85;19.80;99650.61;78478;1300;3052949;-75
2023/05/20 10:34:17;;;;;;;;;;;;;;;29.97;19.28;99645.12;79686;1301;3011481;-72
2023/05/20 10:36:46;;;;;;;3.20;2.40;;;;;;;29.89;19.48;99641.80;78428;1296;3069453;-65
2023/05/20 10:39:16;;;;;;;5.40;2.60;;;;;;;29.94;19.52;99644.64;79555;1295;3011558;-64
2023/05/20 10:41:44;;;;;;;3.50;2.60;;;;;;;29.99;18.77;99643.18;78351;1295;3056005;-68
2023/05/20 10:44:10;;;;;;;6.50;2.10;;;;;;;30.16;18.90;99643.77;79563;1295;3021258;-68
2023/05/20 10:46:38;;;;;;;5.70;3.00;;;;;;;30.32;18.86;99639.87;79599;1296;3012292;-66
2023/05/20 10:49:16;;;;;;;7.80;2.50;;;;;;;30.38;18.97;99635.80;78173;1298;3028339;-66
2023/05/20 10:51:45;;;;;;;3.70;2.20;;;;;;;30.21;18.84;99635.86;78144;1300;3053246;-69
2023/05/20 10:54:12;;;;;;;9.90;2.60;;;;;;;30.26;18.77;99638.41;79800;1295;3011626;-69
2023/05/20 10:56:39;;;;;;;9.00;2.70;;;;;;;30.34;18.73;99638.53;79360;1295;3011601;-69
2023/05/20 10:59:07;;;;;;;7.10;2.80;;;;;;;30.40;19.08;99637.53;78390;1300;3049057;-69
2023/05/20 11:01:34;;;;;;;3.90;2.30;;;;;;;30.25;19.14;99632.55;79465;1295;3020482;-67
2023/05/20 11:04:02;;;;;;;4.00;2.50;;;;;;;30.12;19.52;99635.26;79615;1295;3013152;-69
2023/05/20 11:06:31;;;;;;;3.70;2.30;;;;;;;30.01;19.92;99631.05;78598;1301;3052901;-68
2023/05/20 11:09:05;;;;;;;6.60;2.40;;;;;;;29.98;19.75;99630.08;80595;1299;3013500;-66
2023/05/20 11:11:37;;;;;;;8.40;2.60;;;;;;;30.15;19.44;99633.45;79398;1295;3055763;-64
2023/05/20 11:14:03;;;;;;;7.50;2.90;;;;;;;30.30;19.40;99631.63;79676;1295;3011626;-66
2023/05/20 11:16:32;;;;;;;6.40;2.70;;;;;;;30.39;19.06;99624.19;78961;1298;3011873;-71
2023/05/20 11:18:59;;;;;;;5.60;2.50;;;;;;;30.46;19.17;99622.38;79397;1301;3015107;-65